Time;durP1;ratioP1;P1;durP2;ratioP2;P2;SDS_P1;SDS_P2;PMS_P1;PMS_P2;Temp;Humidity;BMP_temperature;BMP_pressure;BME280_temperature;BME280_humidity;BME280_pressure;Samples;Min_cycle;Max_cycle;Signal;HPM_P1;HPM_P2
2023/10/20 00:00:52;;;;;;;14.70;13.40;;;14.30;99.90;;;;;;5121429;28;20535;-80
2023/10/20 00:06:46;;;;;;;14.93;12.13;;;14.30;99.90;;;;;;5120219;28;20862;-81
2023/10/20 00:09:56;;;;;;;11.00;10.10;;;14.50;99.90;;;;;;5120624;28;20447;-81
2023/10/20 00:13:08;;;;;;;;;;;;;;;;;;;;;
2023/10/20 00:16:16;;;;;;;12.23;11.23;;;14.30;99.90;;;;;;5065631;28;20477;-80
2023/10/20 00:19:07;;;;;;;11.60;10.60;;;14.30;99.90;;;;;;5120255;28;20541;-80
2023/10/20 00:22:00;;;;;;;10.90;9.90;;;14.30;99.90;;;;;;5119314;28;20499;-80
2023/10/20 00:24:46;;;;;;;10.30;9.50;;;14.20;99.90;;;;;;5115619;28;20480;-79
2023/10/20 00:27:58;;;;;;;;;;;;;;;;;;;;;
2023/10/20 00:34:06;;;;;;;10.97;10.07;;;14.30;99.90;;;;;;5080394;28;20443;-81
2023/10/20 00:39:31;;;;;;;11.73;10.70;;;14.50;99.90;;;;;;5107756;28;20485;-82
2023/10/20 00:42:20;;;;;;;12.50;11.30;;;14.30;99.90;;;;;;5123888;28;20442;-83
2023/10/20 00:45:20;;;;;;;14.80;13.40;;;14.30;99.90;;;;;;5124729;28;20534;-81
2023/10/20 00:47:59;;;;;;;16.83;15.30;;;14.30;99.90;;;;;;5125509;28;20489;-83
2023/10/20 00:50:50;;;;;;;15.70;14.30;;;14.30;99.90;;;;;;5125542;28;20439;-84
2023/10/20 00:57:11;;;;;;;16.13;14.73;;;14.30;99.90;;;;;;5123466;28;20458;-81
2023/10/20 01:00:14;;;;;;;16.17;14.60;;;14.50;99.90;;;;;;5125090;28;20438;-80
2023/10/20 01:06:12;;;;;;;13.90;12.60;;;14.20;99.90;;;;;;5113124;28;20466;-81
2023/10/20 01:09:17;;;;;;;15.07;13.70;;;14.20;99.90;;;;;;5116354;28;20443;-83
2023/10/20 01:11:58;;;;;;;14.50;13.30;;;14.20;99.90;;;;;;5116649;28;20446;-83
2023/10/20 01:14:42;;;;;;;14.60;13.33;;;14.20;99.90;;;;;;5115734;28;20451;-82
2023/10/20 01:17:31;;;;;;;12.80;11.70;;;14.20;99.90;;;;;;5109789;28;20468;-82
2023/10/20 01:20:42;;;;;;;13.00;11.80;;;14.20;99.90;;;;;;5104667;28;20483;-81
2023/10/20 01:23:50;;;;;;;12.50;11.40;;;14.20;99.90;;;;;;5105390;28;20851;-80
2023/10/20 01:26:51;;;;;;;13.03;11.80;;;14.20;99.90;;;;;;5103451;28;20467;-82
2023/10/20 01:29:36;;;;;;;11.90;10.70;;;14.20;99.90;;;;;;5107748;28;20451;-82
2023/10/20 01:32:19;;;;;;;12.30;11.10;;;14.10;99.90;;;;;;5105871;28;20443;-80
2023/10/20 01:35:05;;;;;;;16.40;15.00;;;14.10;99.90;;;;;;5104507;28;20864;-81
2023/10/20 01:38:15;;;;;;;11.40;10.40;;;14.10;99.90;;;;;;5107062;28;20494;-84
2023/10/20 01:41:19;;;;;;;11.00;10.00;;;13.80;99.90;;;;;;5082807;28;20486;-79
2023/10/20 01:44:40;;;;;;;12.33;11.20;;;14.20;99.90;;;;;;5106101;28;20448;-82
2023/10/20 01:50:33;;;;;;;11.37;10.27;;;14.10;99.90;;;;;;5100247;28;20443;-79
2023/10/20 01:53:30;;;;;;;11.33;10.43;;;14.10;99.90;;;;;;5097939;28;20454;-79
2023/10/20 01:59:32;;;;;;;9.73;9.00;;;14.20;99.90;;;;;;5095019;28;20444;-81
2023/10/20 02:05:22;;;;;;;11.10;10.20;;;14.10;99.90;;;;;;5092969;28;20475;-79
2023/10/20 02:08:20;;;;;;;10.50;9.70;;;14.10;99.90;;;;;;5099525;28;20558;-80
2023/10/20 02:11:32;;;;;;;11.10;10.13;;;14.00;99.90;;;;;;5101950;28;20447;-79
2023/10/20 02:14:15;;;;;;;11.30;10.40;;;14.10;99.90;;;;;;5051352;28;20831;-80
2023/10/20 02:16:58;;;;;;;10.87;9.97;;;13.70;99.90;;;;;;5101994;28;21081;-80
2023/10/20 02:19:41;;;;;;;12.13;11.17;;;13.70;99.90;;;;;;5089725;28;20816;-79
2023/10/20 02:25:08;;;;;;;10.57;9.73;;;14.00;99.90;;;;;;5088189;28;20504;-78
2023/10/20 02:27:59;;;;;;;10.83;9.80;;;14.00;99.90;;;;;;5100423;28;20467;-82
2023/10/20 02:30:56;;;;;;;9.90;9.10;;;14.00;99.90;;;;;;5098440;28;20444;-79
2023/10/20 02:37:09;;;;;;;15.10;13.80;;;14.00;99.90;;;;;;5093750;28;20545;-79
2023/10/20 02:39:42;;;;;;;12.17;11.23;;;14.00;99.90;;;;;;5094900;28;20536;-80
2023/10/20 02:42:46;;;;;;;11.20;10.30;;;14.00;99.90;;;;;;5094702;28;20508;-80
2023/10/20 02:52:00;;;;;;;;;;;;;;;;;;;;;
2023/10/20 02:54:56;;;;;;;;;;;;;;;;;;;;;
2023/10/20 02:57:50;;;;;;;11.33;10.43;;;14.00;99.90;;;;;;5095919;28;20450;-81
2023/10/20 03:00:52;;;;;;;12.60;11.50;;;14.00;99.90;;;;;;5095867;28;20448;-79
2023/10/20 03:10:39;;;;;;;12.73;11.60;;;14.00;99.90;;;;;;5113729;28;20497;-80
2023/10/20 03:16:51;;;;;;;14.03;12.73;;;14.10;99.90;;;;;;5093081;28;20431;-79
2023/10/20 03:26:52;;;;;;;14.20;12.80;;;14.00;99.90;;;;;;5044357;28;20488;-79
2023/10/20 03:33:00;;;;;;;14.20;12.80;;;14.00;99.90;;;;;;5117022;28;20437;-80
2023/10/20 03:35:55;;;;;;;13.03;11.93;;;14.20;99.90;;;;;;5121261;28;20512;-83
2023/10/20 03:39:32;;;;;;;14.90;13.50;;;13.70;99.90;;;;;;5122117;28;20442;-82
2023/10/20 03:42:53;;;;;;;15.83;12.40;;;14.00;99.90;;;;;;5125767;28;20493;-82
2023/10/20 03:49:18;;;;;;;13.30;12.10;;;13.90;99.90;;;;;;5123092;28;20439;-83
2023/10/20 03:52:11;;;;;;;13.00;11.80;;;13.90;99.90;;;;;;5044833;28;20729;-84
2023/10/20 04:01:42;;;;;;;;;;;;;;;;;;;;;
2023/10/20 04:04:54;;;;;;;12.60;11.50;;;13.90;99.90;;;;;;5107134;28;20438;-83
2023/10/20 04:14:57;;;;;;;14.20;13.00;;;13.80;99.90;;;;;;5044724;28;20447;-84
2023/10/20 04:17:29;;;;;;;12.67;11.57;;;13.80;99.90;;;;;;5107009;28;20628;-84
2023/10/20 04:20:49;;;;;;;13.93;11.17;;;13.80;99.90;;;;;;5106357;28;20432;-84
2023/10/20 04:24:11;;;;;;;;;;;;;;;;;;;;;
2023/10/20 04:54:58;;;;;;;9.10;8.10;;;13.50;99.90;;;;;;5111323;28;20494;-85
2023/10/20 05:00:41;;;;;;;10.07;7.27;;;13.50;99.90;;;;;;5087134;28;20462;-82
2023/10/20 05:03:45;;;;;;;9.00;8.10;;;13.60;99.90;;;;;;5118455;28;20481;-82
2023/10/20 05:06:40;;;;;;;8.60;7.80;;;13.60;99.90;;;;;;5114676;28;20435;-84
2023/10/20 05:09:40;;;;;;;7.97;7.27;;;13.60;99.90;;;;;;5116843;28;20432;-81
2023/10/20 05:12:23;;;;;;;7.97;7.17;;;13.60;99.90;;;;;;5117992;28;20452;-81
2023/10/20 05:15:05;;;;;;;8.97;6.83;;;13.50;99.90;;;;;;5119431;28;20450;-79
2023/10/20 05:17:40;;;;;;;7.50;6.63;;;13.50;99.90;;;;;;5121060;28;20467;-83
2023/10/20 05:20:22;;;;;;;7.80;7.17;;;13.50;99.90;;;;;;5120429;28;20976;-82
2023/10/20 05:23:27;;;;;;;7.80;7.10;;;13.60;99.90;;;;;;5122766;28;20535;-80
2023/10/20 05:26:13;;;;;;;8.13;6.93;;;13.50;99.90;;;;;;5119437;28;21000;-80
2023/10/20 05:28:57;;;;;;;9.70;7.30;;;13.50;99.90;;;;;;5121324;28;20458;-82
2023/10/20 05:31:34;;;;;;;10.00;7.27;;;13.50;99.90;;;;;;5122475;28;20490;-83
2023/10/20 05:34:25;;;;;;;7.93;7.17;;;13.30;99.90;;;;;;5122399;28;20455;-80
2023/10/20 05:40:27;;;;;;;9.60;7.57;;;13.50;99.90;;;;;;5080321;28;20435;-82
2023/10/20 05:46:35;;;;;;;8.60;8.00;;;13.60;99.90;;;;;;5104285;28;20466;-85
2023/10/20 05:49:23;;;;;;;8.63;7.93;;;13.50;99.90;;;;;;5118864;28;20455;-85
2023/10/20 05:52:13;;;;;;;9.20;8.30;;;13.60;99.90;;;;;;5101957;28;20507;-84
2023/10/20 05:54:48;;;;;;;9.03;7.97;;;13.20;99.90;;;;;;5113979;28;20886;-84
2023/10/20 05:57:45;;;;;;;8.90;8.00;;;13.50;99.90;;;;;;5107899;28;20471;-84
2023/10/20 06:00:48;;;;;;;9.13;8.27;;;13.50;99.90;;;;;;5115991;28;20439;-83
2023/10/20 06:03:37;;;;;;;9.43;8.63;;;13.50;99.90;;;;;;5115702;28;20461;-83
2023/10/20 06:06:25;;;;;;;9.57;8.67;;;13.60;99.90;;;;;;5115263;28;20510;-83
2023/10/20 06:09:00;;;;;;;13.03;9.20;;;13.60;99.90;;;;;;5118285;28;20443;-83
2023/10/20 06:11:54;;;;;;;11.23;10.13;;;13.60;99.90;;;;;;5113786;28;20916;-82
2023/10/20 06:14:35;;;;;;;10.90;10.00;;;13.60;99.90;;;;;;5115155;28;20492;-82
2023/10/20 06:17:38;;;;;;;10.60;9.70;;;13.50;99.90;;;;;;5111769;28;20468;-81
2023/10/20 06:23:14;;;;;;;12.50;11.30;;;13.40;99.90;;;;;;5117830;28;20479;-82
2023/10/20 06:29:27;;;;;;;14.53;12.53;;;13.10;99.90;;;;;;5101547;28;20447;-82
2023/10/20 06:36:01;;;;;;;12.40;11.30;;;13.30;99.90;;;;;;5053694;28;21026;-81
2023/10/20 06:38:52;;;;;;;14.70;13.20;;;13.60;99.90;;;;;;5116223;28;20435;-81
2023/10/20 06:41:35;;;;;;;13.23;12.03;;;13.30;99.90;;;;;;5119868;28;20468;-82
2023/10/20 06:44:38;;;;;;;13.20;11.90;;;13.40;99.90;;;;;;5121581;28;20943;-84
2023/10/20 06:47:47;;;;;;;11.97;10.97;;;13.30;99.90;;;;;;5121979;28;20566;-83
2023/10/20 06:50:20;;;;;;;13.17;12.07;;;13.30;99.90;;;;;;5122499;28;20457;-80
2023/10/20 06:53:12;;;;;;;14.10;12.73;;;13.30;99.90;;;;;;5117331;28;20446;-80
2023/10/20 06:56:13;;;;;;;14.10;12.80;;;13.30;99.90;;;;;;5117476;28;20543;-81
2023/10/20 06:59:16;;;;;;;13.63;12.33;;;13.40;99.90;;;;;;5123531;28;20562;-82
2023/10/20 07:02:15;;;;;;;14.30;13.00;;;13.40;99.90;;;;;;5127105;28;20474;-82
2023/10/20 07:07:59;;;;;;;14.07;12.80;;;13.40;99.90;;;;;;5123804;28;20470;-83
2023/10/20 07:13:37;;;;;;;15.27;13.90;;;13.50;99.90;;;;;;5112875;28;20480;-79
2023/10/20 07:16:46;;;;;;;14.37;13.17;;;13.50;99.90;;;;;;5121664;28;20522;-83
2023/10/20 07:19:37;;;;;;;14.93;13.53;;;13.50;99.90;;;;;;5128616;28;20519;-83
2023/10/20 07:22:34;;;;;;;14.30;13.10;;;13.70;99.90;;;;;;5125895;28;20500;-80
2023/10/20 07:25:57;;;;;;;13.30;12.20;;;13.60;99.90;;;;;;5123299;28;20869;-84
2023/10/20 07:31:49;;;;;;;13.80;12.57;;;13.70;99.90;;;;;;5123817;28;20460;-86
2023/10/20 07:38:04;;;;;;;14.00;12.47;;;13.70;99.90;;;;;;5123428;28;20454;-82
2023/10/20 07:44:08;;;;;;;16.13;14.07;;;13.80;99.90;;;;;;5125160;28;20475;-84
2023/10/20 07:46:56;;;;;;;15.70;14.30;;;13.80;99.90;;;;;;5132283;28;20480;-84
2023/10/20 07:53:19;;;;;;;16.50;15.00;;;13.90;99.90;;;;;;5124236;28;20903;-83
2023/10/20 07:58:59;;;;;;;29.03;26.20;;;14.00;99.90;;;;;;5122286;28;20439;-85
2023/10/20 08:05:43;;;;;;;16.00;14.50;;;14.00;99.90;;;;;;5099770;28;20431;-83
2023/10/20 08:08:38;;;;;;;16.37;14.67;;;14.10;99.90;;;;;;5101924;28;20464;-85
2023/10/20 08:11:41;;;;;;;14.93;13.50;;;13.80;99.90;;;;;;5116904;28;20503;-84
2023/10/20 08:14:38;;;;;;;15.20;13.80;;;14.10;99.90;;;;;;5117071;28;20531;-83
2023/10/20 08:20:23;;;;;;;14.20;12.97;;;14.00;99.90;;;;;;5103754;28;20466;-82
2023/10/20 08:23:24;;;;;;;14.47;13.07;;;14.20;99.90;;;;;;5116834;28;20482;-82
2023/10/20 08:26:02;;;;;;;14.27;12.77;;;14.40;99.90;;;;;;5111159;28;20600;-79
2023/10/20 08:28:37;;;;;;;14.90;13.50;;;14.30;99.90;;;;;;5097399;28;20632;-79
2023/10/20 08:31:33;;;;;;;15.63;14.00;;;14.30;99.90;;;;;;5096356;28;20451;-81
2023/10/20 08:34:09;;;;;;;14.43;13.10;;;14.40;99.90;;;;;;5096851;28;20514;-81
2023/10/20 08:37:08;;;;;;;12.83;11.73;;;14.60;99.90;;;;;;5099196;28;20501;-81
2023/10/20 08:40:18;;;;;;;12.50;11.30;;;14.40;99.90;;;;;;5102680;28;20447;-82
2023/10/20 08:48:53;;;;;;;17.33;15.73;;;14.40;99.90;;;;;;5125203;28;20441;-82
2023/10/20 08:51:42;;;;;;;14.57;13.17;;;14.80;99.90;;;;;;5129340;28;20447;-81
2023/10/20 08:54:26;;;;;;;;;;;;;;;;;;;;;
2023/10/20 08:57:05;;;;;;;13.57;12.27;;;15.10;99.90;;;;;;5126811;28;20650;-84
2023/10/20 08:59:41;;;;;;;13.73;12.53;;;15.20;99.90;;;;;;5120626;28;20444;-80
2023/10/20 09:02:21;;;;;;;13.47;12.20;;;15.20;99.90;;;;;;5104929;28;20502;-83
2023/10/20 09:05:00;;;;;;;13.23;12.13;;;15.20;99.90;;;;;;5101868;28;20465;-83
2023/10/20 09:07:39;;;;;;;13.63;12.43;;;15.30;99.90;;;;;;5100828;28;20475;-83
2023/10/20 09:10:20;;;;;;;13.60;12.50;;;15.30;99.90;;;;;;5100798;28;20471;-82
2023/10/20 09:13:13;;;;;;;14.83;13.57;;;15.40;99.90;;;;;;5109445;28;20501;-80
2023/10/20 09:16:00;;;;;;;15.50;14.10;;;15.40;99.90;;;;;;5110494;28;20474;-82
2023/10/20 09:18:52;;;;;;;16.77;15.20;;;15.50;99.90;;;;;;5110021;28;20509;-81
2023/10/20 09:21:34;;;;;;;15.87;14.47;;;15.50;99.90;;;;;;5103499;28;20459;-81
2023/10/20 09:24:20;;;;;;;16.20;14.70;;;15.30;99.90;;;;;;5100104;28;20475;-79
2023/10/20 09:27:00;;;;;;;15.80;14.30;;;15.60;99.90;;;;;;5109259;28;20494;-81
2023/10/20 09:29:44;;;;;;;17.07;15.47;;;15.60;99.90;;;;;;5105731;28;20467;-81
2023/10/20 09:32:25;;;;;;;15.97;14.47;;;15.60;99.90;;;;;;5105224;28;20443;-82
2023/10/20 09:35:08;;;;;;;18.90;17.17;;;15.60;99.90;;;;;;5102609;28;20523;-83
2023/10/20 09:37:45;;;;;;;22.00;13.80;;;15.70;99.90;;;;;;5102996;28;20460;-83
2023/10/20 09:40:24;;;;;;;14.57;12.97;;;15.60;99.90;;;;;;5105691;28;20456;-83
2023/10/20 09:43:22;;;;;;;14.80;13.50;;;15.60;99.90;;;;;;5106734;28;20532;-80
2023/10/20 09:46:17;;;;;;;16.80;14.20;;;15.70;99.90;;;;;;5110876;28;20489;-82
2023/10/20 09:49:07;;;;;;;15.33;13.77;;;15.90;99.90;;;;;;5113945;28;20448;-80
2023/10/20 09:51:39;;;;;;;13.27;11.97;;;16.00;99.90;;;;;;5107732;28;20454;-82
2023/10/20 09:54:19;;;;;;;14.70;13.27;;;16.00;99.90;;;;;;5112443;28;20534;-82
2023/10/20 09:56:54;;;;;;;12.27;11.17;;;16.10;99.90;;;;;;5111844;28;20554;-80
2023/10/20 09:59:30;;;;;;;12.40;11.40;;;15.90;99.90;;;;;;5113047;28;20936;-82
2023/10/20 10:02:12;;;;;;;9.77;8.87;;;16.30;99.90;;;;;;5109369;28;20451;-84
2023/10/20 10:04:51;;;;;;;10.30;9.30;;;16.30;99.90;;;;;;5107420;28;20447;-81
2023/10/20 10:07:32;;;;;;;9.43;8.70;;;16.40;99.90;;;;;;5112286;28;20486;-81
2023/10/20 10:10:10;;;;;;;9.93;9.00;;;16.40;99.90;;;;;;5099263;28;20448;-80
2023/10/20 10:12:39;;;;;;;9.83;8.83;;;16.50;99.90;;;;;;5099452;28;20436;-83
2023/10/20 10:15:13;;;;;;;10.33;9.00;;;16.40;99.90;;;;;;5104843;28;20443;-84
2023/10/20 10:17:54;;;;;;;9.23;8.37;;;16.40;99.90;;;;;;5104370;28;20506;-82
2023/10/20 10:20:28;;;;;;;9.13;8.33;;;16.50;99.90;;;;;;5107129;28;20498;-84
2023/10/20 10:23:02;;;;;;;8.70;8.00;;;16.50;99.90;;;;;;5115243;28;20478;-84
2023/10/20 10:25:36;;;;;;;9.67;8.77;;;16.50;99.90;;;;;;5110274;28;20449;-82
2023/10/20 10:28:15;;;;;;;9.50;8.60;;;16.40;99.90;;;;;;5106556;28;20501;-78
2023/10/20 10:30:54;;;;;;;9.07;8.27;;;16.70;99.90;;;;;;5105037;28;20534;-81
2023/10/20 10:33:33;;;;;;;8.37;7.67;;;16.80;99.90;;;;;;5109885;28;20470;-83
2023/10/20 10:36:10;;;;;;;8.80;8.00;;;16.90;99.90;;;;;;5115861;28;20440;-83
2023/10/20 10:38:44;;;;;;;9.67;8.80;;;17.00;99.90;;;;;;5115438;28;20443;-82
2023/10/20 10:41:25;;;;;;;8.67;7.97;;;17.00;99.90;;;;;;5117817;28;20490;-82
2023/10/20 10:44:01;;;;;;;7.77;6.97;;;17.00;99.90;;;;;;5116545;28;20498;-83
2023/10/20 10:46:38;;;;;;;7.90;7.10;;;17.10;99.90;;;;;;5109426;28;20559;-83
2023/10/20 10:49:15;;;;;;;12.87;11.77;;;17.10;99.90;;;;;;5106946;28;20527;-84
2023/10/20 10:51:57;;;;;;;7.53;6.93;;;17.20;99.90;;;;;;5108112;28;20440;-84
2023/10/20 10:54:31;;;;;;;6.23;5.73;;;17.30;99.90;;;;;;5108010;28;20432;-83
2023/10/20 10:57:07;;;;;;;4.60;4.30;;;17.20;99.90;;;;;;5104145;28;20468;-82
2023/10/20 10:59:38;;;;;;;5.07;4.67;;;17.40;99.90;;;;;;5100669;28;20827;-81
2023/10/20 11:02:31;;;;;;;5.37;4.97;;;17.30;99.90;;;;;;5100538;28;20443;-82
2023/10/20 11:05:12;;;;;;;5.30;3.83;;;17.30;99.90;;;;;;5101276;28;20452;-82
2023/10/20 11:08:03;;;;;;;4.60;4.20;;;17.40;99.90;;;;;;5101371;28;20467;-81
2023/10/20 11:10:47;;;;;;;16.30;14.90;;;17.50;99.90;;;;;;5104207;28;20501;-81
2023/10/20 11:13:21;;;;;;;3.43;3.13;;;17.60;99.90;;;;;;5105357;28;20440;-81
2023/10/20 11:16:00;;;;;;;4.13;2.07;;;17.70;99.90;;;;;;5105589;28;20452;-82
2023/10/20 11:18:40;;;;;;;1.40;1.30;;;17.70;99.90;;;;;;5106654;28;20452;-82
2023/10/20 11:21:19;;;;;;;0.90;0.90;;;17.70;99.90;;;;;;5098245;28;20830;-82
2023/10/20 11:24:00;;;;;;;0.60;0.60;;;17.80;99.90;;;;;;5099105;28;20467;-80
2023/10/20 11:26:35;;;;;;;0.50;0.50;;;17.70;99.90;;;;;;5098819;28;20471;-83
2023/10/20 11:29:16;;;;;;;0.57;0.57;;;17.80;99.90;;;;;;5098519;28;20462;-82
2023/10/20 11:31:45;;;;;;;0.50;0.50;;;17.70;99.90;;;;;;5099962;28;20490;-83
2023/10/20 11:34:32;;;;;;;0.80;0.80;;;17.70;99.90;;;;;;5100392;28;20436;-83
2023/10/20 11:37:22;;;;;;;0.50;0.50;;;18.00;99.90;;;;;;5102406;28;20583;-82
2023/10/20 11:40:10;;;;;;;0.70;0.70;;;17.50;99.90;;;;;;5106920;28;20452;-83
2023/10/20 11:42:48;;;;;;;0.50;0.50;;;17.70;99.90;;;;;;5115548;28;20462;-82
2023/10/20 11:45:20;;;;;;;0.50;0.50;;;17.80;99.90;;;;;;5116243;28;20439;-82
2023/10/20 11:47:55;;;;;;;0.80;0.70;;;18.00;99.90;;;;;;5117011;28;20435;-83
2023/10/20 11:50:46;;;;;;;1.40;0.90;;;17.70;99.90;;;;;;5116954;28;20498;-80
2023/10/20 11:53:24;;;;;;;1.13;0.70;;;17.60;99.90;;;;;;5115751;28;20523;-83
2023/10/20 11:55:59;;;;;;;1.23;0.60;;;17.80;99.90;;;;;;5114321;28;20420;-84
2023/10/20 11:58:39;;;;;;;0.70;0.70;;;17.70;99.90;;;;;;5114947;28;20443;-83
2023/10/20 12:01:32;;;;;;;0.90;0.87;;;17.80;99.90;;;;;;5114646;28;20473;-82
2023/10/20 12:04:05;;;;;;;0.50;0.50;;;17.50;99.90;;;;;;5115373;28;20467;-84
2023/10/20 12:06:36;;;;;;;0.50;0.50;;;18.00;99.90;;;;;;5114574;28;20456;-83
2023/10/20 12:09:20;;;;;;;0.57;0.57;;;17.90;99.90;;;;;;5114055;28;20424;-86
2023/10/20 12:11:51;;;;;;;1.77;0.73;;;17.80;99.90;;;;;;5112328;28;20458;-82
2023/10/20 12:14:20;;;;;;;0.67;0.67;;;17.80;99.90;;;;;;5108683;28;20477;-82
2023/10/20 12:16:54;;;;;;;0.73;0.70;;;17.90;99.90;;;;;;5109705;28;20455;-81
2023/10/20 12:19:22;;;;;;;1.63;0.90;;;18.10;99.90;;;;;;5109187;28;20441;-82
2023/10/20 12:21:50;;;;;;;0.97;0.80;;;17.80;99.90;;;;;;5106423;28;20520;-82
2023/10/20 12:24:27;;;;;;;0.70;0.70;;;17.60;99.90;;;;;;5108733;28;20463;-84
2023/10/20 12:27:01;;;;;;;1.00;0.67;;;18.00;99.90;;;;;;5108866;28;20536;-82
2023/10/20 12:29:31;;;;;;;1.13;1.10;;;18.00;99.90;;;;;;5111282;28;20477;-82
2023/10/20 12:32:24;;;;;;;0.60;0.60;;;18.10;99.90;;;;;;5112123;28;20867;-81
2023/10/20 12:35:00;;;;;;;0.60;0.60;;;18.00;99.90;;;;;;5115651;28;20440;-80
2023/10/20 12:37:45;;;;;;;0.70;0.70;;;18.50;99.90;;;;;;5115873;28;20468;-82
2023/10/20 12:40:39;;;;;;;;;;;;;;;;;;;;;
2023/10/20 12:43:18;;;;;;;0.40;0.40;;;19.00;99.90;;;;;;5110524;28;20457;-83
2023/10/20 12:46:07;;;;;;;0.63;0.63;;;19.40;99.90;;;;;;5112513;28;20477;-83
2023/10/20 12:49:00;;;;;;;0.40;0.40;;;19.60;99.90;;;;;;5119283;28;20512;-83
2023/10/20 12:51:51;;;;;;;2.97;2.77;;;19.50;99.90;;;;;;5128943;28;20455;-84
2023/10/20 12:54:32;;;;;;;0.80;0.80;;;19.30;99.90;;;;;;5125063;28;20449;-84
2023/10/20 12:57:07;;;;;;;1.20;0.90;;;19.20;99.90;;;;;;5133771;28;20482;-82
2023/10/20 12:59:38;;;;;;;2.23;2.13;;;19.20;99.90;;;;;;5129957;28;20456;-84
2023/10/20 13:02:09;;;;;;;1.20;1.10;;;19.20;99.90;;;;;;5135060;28;20443;-81
2023/10/20 13:04:42;;;;;;;1.80;0.93;;;19.30;99.90;;;;;;5132092;28;20458;-83
2023/10/20 13:07:14;;;;;;;0.77;0.77;;;19.30;99.90;;;;;;5134729;28;20471;-82
2023/10/20 13:09:50;;;;;;;1.10;0.67;;;19.30;99.90;;;;;;5133079;28;20472;-84
2023/10/20 13:12:25;;;;;;;2.47;2.37;;;19.30;99.90;;;;;;5121761;28;20503;-83
2023/10/20 13:15:02;;;;;;;1.30;1.20;;;19.20;99.90;;;;;;5131857;28;20439;-81
2023/10/20 13:17:45;;;;;;;2.93;2.73;;;19.10;99.90;;;;;;5132720;28;20470;-83
2023/10/20 13:20:20;;;;;;;0.40;0.40;;;19.30;99.90;;;;;;5130997;28;20476;-82
2023/10/20 13:22:50;;;;;;;0.57;0.50;;;19.10;99.90;;;;;;5125261;28;20477;-82
2023/10/20 13:25:33;;;;;;;0.50;0.50;;;19.10;99.90;;;;;;5119735;28;20459;-79
2023/10/20 13:28:17;;;;;;;0.60;0.50;;;19.10;99.90;;;;;;5126752;28;20455;-80
2023/10/20 13:30:53;;;;;;;0.90;0.90;;;19.10;99.90;;;;;;5129092;28;20446;-79
2023/10/20 13:33:40;;;;;;;0.57;0.57;;;19.00;99.90;;;;;;5131644;28;20456;-81
2023/10/20 13:36:10;;;;;;;0.80;0.80;;;18.90;99.90;;;;;;5124692;27;20494;-80
2023/10/20 13:38:46;;;;;;;0.50;0.50;;;18.80;99.90;;;;;;5122954;28;20439;-83
2023/10/20 13:41:31;;;;;;;0.53;0.53;;;18.70;99.90;;;;;;5137113;28;20443;-82
2023/10/20 13:44:10;;;;;;;0.83;0.50;;;18.80;99.90;;;;;;5129379;28;20541;-82
2023/10/20 13:46:58;;;;;;;1.73;1.60;;;18.70;99.90;;;;;;5128397;28;20483;-84
2023/10/20 13:49:36;;;;;;;0.83;0.83;;;18.70;99.90;;;;;;5140092;28;20447;-81
2023/10/20 13:52:11;;;;;;;0.50;0.50;;;18.60;99.90;;;;;;5140173;28;21015;-82
2023/10/20 13:54:57;;;;;;;0.50;0.50;;;18.50;99.90;;;;;;5139533;28;20422;-81
2023/10/20 13:57:47;;;;;;;0.60;0.60;;;18.40;99.90;;;;;;5130539;28;20517;-85
2023/10/20 14:00:22;;;;;;;0.60;0.60;;;18.30;99.90;;;;;;5133069;28;20476;-80
2023/10/20 14:03:13;;;;;;;1.30;0.90;;;18.40;99.90;;;;;;5130433;28;20480;-81
2023/10/20 14:06:02;;;;;;;1.57;1.53;;;17.90;99.90;;;;;;5124028;28;20454;-83
2023/10/20 14:08:46;;;;;;;1.23;0.90;;;18.10;99.90;;;;;;5127419;28;20474;-82
2023/10/20 14:14:18;;;;;;;2.10;0.60;;;17.90;99.90;;;;;;5128354;28;20427;-81
2023/10/20 14:17:24;;;;;;;1.73;1.63;;;17.90;99.90;;;;;;5133392;28;20431;-83
2023/10/20 14:20:31;;;;;;;1.20;1.20;;;17.80;99.90;;;;;;5107619;28;20440;-83
2023/10/20 14:23:31;;;;;;;;;;;;;;;;;;;;;
2023/10/20 14:26:29;;;;;;;;;;;;;;;;;;;;;
2023/10/20 14:29:17;;;;;;;;;;;;;;;;;;;;;
2023/10/20 14:31:53;;;;;;;2.67;2.47;;;17.30;99.90;;;;;;5100225;28;20431;-81
2023/10/20 14:34:23;;;;;;;2.40;2.20;;;17.10;99.90;;;;;;5120961;28;20434;-81
2023/10/20 14:36:59;;;;;;;1.93;1.40;;;17.00;99.90;;;;;;5123806;28;21054;-80
2023/10/20 14:39:27;;;;;;;1.00;0.77;;;17.00;99.90;;;;;;5115482;28;20436;-82
2023/10/20 14:41:58;;;;;;;1.43;0.80;;;16.90;99.90;;;;;;5114904;28;20404;-84
2023/10/20 14:44:26;;;;;;;0.73;0.73;;;16.80;99.90;;;;;;5130460;28;20483;-81
2023/10/20 14:46:59;;;;;;;2.37;0.90;;;16.80;99.90;;;;;;5117404;28;20471;-85
2023/10/20 14:49:43;;;;;;;0.80;0.80;;;16.70;99.90;;;;;;5118232;28;20436;-82
2023/10/20 14:52:33;;;;;;;1.00;1.00;;;16.60;99.90;;;;;;5120383;28;20849;-82
2023/10/20 14:55:35;;;;;;;0.93;0.60;;;16.50;99.90;;;;;;5135092;28;20439;-82
2023/10/20 14:58:03;;;;;;;1.07;1.07;;;16.10;99.90;;;;;;5114381;28;20469;-80
2023/10/20 15:00:48;;;;;;;0.70;0.70;;;16.30;99.90;;;;;;5131533;28;20433;-81
2023/10/20 15:03:17;;;;;;;1.27;0.80;;;16.30;99.90;;;;;;5121627;28;20452;-82
2023/10/20 15:05:59;;;;;;;0.77;0.77;;;16.20;99.90;;;;;;5123686;28;20474;-82
2023/10/20 15:08:48;;;;;;;0.60;0.60;;;16.40;99.90;;;;;;5113748;28;21118;-82
2023/10/20 15:39:29;;;;;;;0.80;0.80;;;15.90;99.90;;;;;;4827164;29;20436;-81
2023/10/20 15:42:17;;;;;;;1.50;1.27;;;15.90;99.90;;;;;;4868156;29;20445;-80
2023/10/20 15:52:32;;;;;;;1.57;1.47;;;15.60;99.90;;;;;;5006967;28;20551;-83
2023/10/20 15:55:11;;;;;;;1.90;1.70;;;15.60;99.90;;;;;;5026578;28;20450;-82
2023/10/20 15:57:45;;;;;;;2.00;1.53;;;15.70;99.90;;;;;;5105049;28;20545;-83
2023/10/20 16:00:19;;;;;;;1.77;1.67;;;15.70;99.90;;;;;;5120873;28;20506;-82
2023/10/20 16:03:05;;;;;;;;;;;;;;;;;;;;;
2023/10/20 16:05:38;;;;;;;1.10;1.10;;;15.50;99.90;;;;;;5120177;28;20473;-83
2023/10/20 16:08:11;;;;;;;3.43;2.47;;;15.50;99.90;;;;;;5120330;28;20467;-82
2023/10/20 16:10:49;;;;;;;2.60;1.80;;;15.50;99.90;;;;;;5104711;28;20452;-87
2023/10/20 16:13:24;;;;;;;2.03;1.83;;;15.50;99.90;;;;;;5123855;28;20497;-82
2023/10/20 16:15:54;;;;;;;1.90;1.63;;;15.40;99.90;;;;;;5119107;28;20457;-84
2023/10/20 16:19:14;;;;;;;2.13;1.50;;;15.40;99.90;;;;;;5125653;28;20462;-85
2023/10/20 16:28:21;;;;;;;1.70;1.57;;;15.60;99.90;;;;;;5111123;28;20469;-81
2023/10/20 16:31:17;;;;;;;;;;;;;;;;;;;;;
2023/10/20 16:41:02;;;;;;;2.10;2.00;;;15.50;99.90;;;;;;4936161;28;20471;-81
2023/10/20 16:43:33;;;;;;;2.70;1.80;;;15.20;99.90;;;;;;5101931;28;20505;-83
2023/10/20 16:46:15;;;;;;;4.27;2.13;;;15.30;99.90;;;;;;5105094;28;20479;-80
2023/10/20 16:48:52;;;;;;;1.90;1.70;;;15.40;99.90;;;;;;5118767;28;20435;-81
2023/10/20 16:51:25;;;;;;;2.10;1.90;;;15.20;99.90;;;;;;5118304;28;20438;-80
2023/10/20 16:53:55;;;;;;;2.07;1.90;;;14.90;99.90;;;;;;5114088;28;20458;-80
2023/10/20 16:56:27;;;;;;;2.83;2.27;;;15.10;99.90;;;;;;5101836;28;20463;-82
2023/10/20 16:58:58;;;;;;;2.60;1.97;;;15.40;99.90;;;;;;5121057;28;20465;-82
2023/10/20 17:01:27;;;;;;;2.67;2.47;;;14.90;99.90;;;;;;5120807;28;20507;-85
2023/10/20 17:03:59;;;;;;;2.27;2.07;;;15.10;99.90;;;;;;5122433;28;20947;-83
2023/10/20 17:06:50;;;;;;;2.47;2.00;;;15.10;99.90;;;;;;5127892;28;20474;-83
2023/10/20 17:09:23;;;;;;;2.33;2.13;;;15.00;99.90;;;;;;5124112;28;20445;-83
2023/10/20 17:11:56;;;;;;;3.23;2.37;;;15.00;99.90;;;;;;5105101;28;20478;-82
2023/10/20 17:14:38;;;;;;;2.03;1.83;;;15.10;99.90;;;;;;5116027;28;20438;-82
2023/10/20 17:17:08;;;;;;;2.17;1.97;;;15.10;99.90;;;;;;5123102;28;20809;-81
2023/10/20 17:19:37;;;;;;;2.30;2.10;;;15.00;99.90;;;;;;5124201;28;20453;-80
2023/10/20 17:22:16;;;;;;;2.70;2.37;;;15.00;99.90;;;;;;5123444;28;20462;-82
2023/10/20 17:24:47;;;;;;;3.10;2.50;;;15.00;99.90;;;;;;5115249;28;20554;-82
2023/10/20 17:27:22;;;;;;;2.87;2.57;;;15.00;99.90;;;;;;5122808;28;20479;-80
2023/10/20 17:29:59;;;;;;;3.70;3.40;;;15.00;99.90;;;;;;5122807;28;20457;-80
2023/10/20 17:32:28;;;;;;;2.87;2.67;;;14.90;99.90;;;;;;5113540;28;20497;-83
2023/10/20 17:35:07;;;;;;;3.80;2.33;;;14.90;99.90;;;;;;5122027;28;20443;-82
2023/10/20 17:37:40;;;;;;;3.47;2.00;;;14.90;99.90;;;;;;5120193;28;20463;-84
2023/10/20 17:40:16;;;;;;;2.80;2.60;;;14.90;99.90;;;;;;5104879;28;20463;-83
2023/10/20 17:42:50;;;;;;;2.53;2.33;;;14.90;99.90;;;;;;5122932;28;20544;-81
2023/10/20 17:45:26;;;;;;;2.60;2.10;;;14.90;99.90;;;;;;5112319;28;20819;-81
2023/10/20 17:47:58;;;;;;;3.10;2.80;;;14.80;99.90;;;;;;5118893;28;20908;-83
2023/10/20 17:50:26;;;;;;;3.40;2.57;;;14.80;99.90;;;;;;5122064;28;20431;-81
2023/10/20 17:53:01;;;;;;;3.60;2.53;;;14.80;99.90;;;;;;5119627;28;20469;-78
2023/10/20 17:55:29;;;;;;;2.63;2.43;;;14.50;99.90;;;;;;5118343;28;20488;-80